nws-alerts: Checking more than four warning/county codes can delay the loading of your pages. You should use a cron job to get the data.
EllijayWeather Station Historical Data
Daily Summary for March 6, 2019 Units:  English    Metric   Both
Daily Weekly Monthly Yearly Custom
  High: Low: Average:
Temperature: 39.6 °F 21.9 °F 29.7 °F
Dew Point: 18.1 °F 8.4 °F 11.8 °F
Humidity: 74% 29% 49%
Wind Speed: 6.0mph 0.0mph 0.4mph
Wind Gust: 11.0mph - -
Wind- - West
Pressure: 30.48 in 30.34 in -
Precipitation: 0.00 in    
Historical Graphs
 
 
Tabular Data for March 6, 2019
Time Temperature Dew Point Pressure Wind Wind Speed Wind Gust Humidity Rainfall Rate (Hourly) solar
00:04 28.6 °F 11.3 °F 30.34 in WNW 0.9 mph 4.0 mph 48% 0.00 in meteobridge W/m2
00:09 28.4 °F 10.8 °F 30.34 in Calm   5.0 mph 47% 0.00 in meteobridge W/m2
00:14 28.4 °F 11.3 °F 30.34 in NW 2.0 mph 3.0 mph 48% 0.00 in meteobridge W/m2
00:19 28.2 °F 10.0 °F 30.34 in Calm   5.0 mph 46% 0.00 in meteobridge W/m2
00:24 28.2 °F 10.0 °F 30.34 in Calm     46% 0.00 in meteobridge W/m2
00:29 28.0 °F 10.4 °F 30.34 in Calm   6.0 mph 47% 0.00 in meteobridge W/m2
00:34 28.0 °F 9.9 °F 30.34 in Calm   6.0 mph 46% 0.00 in meteobridge W/m2
00:39 27.9 °F 9.7 °F 30.35 in NNW 0.9 mph 7.0 mph 46% 0.00 in meteobridge W/m2
00:44 27.9 °F 9.7 °F 30.35 in NNW 2.9 mph 8.0 mph 46% 0.00 in meteobridge W/m2
00:49 27.9 °F 10.2 °F 30.35 in Calm   8.0 mph 47% 0.00 in meteobridge W/m2
00:54 27.7 °F 9.7 °F 30.35 in Calm   5.0 mph 46% 0.00 in meteobridge W/m2
00:59 27.7 °F 9.7 °F 30.35 in NE 2.9 mph 10.0 mph 46% 0.00 in meteobridge W/m2
01:04 27.5 °F 9.9 °F 30.35 in West 2.9 mph 9.0 mph 47% 0.00 in meteobridge W/m2
01:09 27.3 °F 10.2 °F 30.36 in Calm   3.0 mph 48% 0.00 in meteobridge W/m2
01:14 27.1 °F 10.0 °F 30.36 in Calm   7.0 mph 48% 0.00 in meteobridge W/m2
01:19 27.1 °F 10.0 °F 30.36 in Calm   7.0 mph 48% 0.00 in meteobridge W/m2
01:24 27.0 °F 9.9 °F 30.36 in Calm   7.0 mph 48% 0.00 in meteobridge W/m2
01:29 26.8 °F 9.7 °F 30.36 in Calm   6.0 mph 48% 0.00 in meteobridge W/m2
01:34 26.8 °F 9.7 °F 30.37 in Calm   2.0 mph 48% 0.00 in meteobridge W/m2
01:39 26.6 °F 9.5 °F 30.37 in Calm   4.0 mph 48% 0.00 in meteobridge W/m2
01:44 26.4 °F 10.2 °F 30.37 in Calm   1.0 mph 50% 0.00 in meteobridge W/m2
01:49 26.4 °F 10.2 °F 30.37 in Calm     50% 0.00 in meteobridge W/m2
01:54 26.2 °F 9.7 °F 30.37 in NNW 2.0 mph 6.0 mph 49% 0.00 in meteobridge W/m2
01:59 26.2 °F 9.7 °F 30.38 in NW 0.9 mph 5.0 mph 49% 0.00 in meteobridge W/m2
02:04 26.1 °F 8.6 °F 30.38 in Calm   10.0 mph 47% 0.00 in meteobridge W/m2
02:09 26.1 °F 9.1 °F 30.38 in Calm   7.0 mph 48% 0.00 in meteobridge W/m2
02:14 25.9 °F 9.0 °F 30.39 in WNW 0.9 mph 7.0 mph 48% 0.00 in meteobridge W/m2
02:19 25.9 °F 9.3 °F 30.38 in West 6.0 mph 6.0 mph 49% 0.00 in meteobridge W/m2
02:24 25.7 °F 8.8 °F 30.38 in Calm   11.0 mph 48% 0.00 in meteobridge W/m2
02:29 25.5 °F 8.6 °F 30.39 in Calm   4.0 mph 48% 0.00 in meteobridge W/m2
02:34 25.5 °F 9.0 °F 30.38 in Calm     49% 0.00 in meteobridge W/m2
02:39 25.3 °F 8.4 °F 30.39 in Calm   9.0 mph 48% 0.00 in meteobridge W/m2
02:44 25.3 °F 8.4 °F 30.40 in Calm   2.0 mph 48% 0.00 in meteobridge W/m2
02:49 25.2 °F 8.6 °F 30.40 in Calm     49% 0.00 in meteobridge W/m2
02:54 25.2 °F 9.1 °F 30.40 in Calm   3.0 mph 50% 0.00 in meteobridge W/m2
02:59 25.2 °F 9.1 °F 30.40 in Calm   3.0 mph 50% 0.00 in meteobridge W/m2
03:04 25.2 °F 9.1 °F 30.40 in Calm   1.0 mph 50% 0.00 in meteobridge W/m2
03:09 25.0 °F 9.3 °F 30.39 in Calm   1.0 mph 51% 0.00 in meteobridge W/m2
03:14 24.8 °F 9.3 °F 30.39 in Calm     51% 0.00 in meteobridge W/m2
03:19 24.6 °F 9.5 °F 30.39 in Calm   8.0 mph 52% 0.00 in meteobridge W/m2
03:24 24.6 °F 9.9 °F 30.39 in Calm     53% 0.00 in meteobridge W/m2
03:29 24.6 °F 9.9 °F 30.39 in Calm     53% 0.00 in meteobridge W/m2
03:34 24.4 °F 9.7 °F 30.39 in Calm   2.0 mph 53% 0.00 in meteobridge W/m2
03:39 24.4 °F 10.2 °F 30.40 in NW 0.9 mph 3.0 mph 54% 0.00 in meteobridge W/m2
03:44 24.4 °F 10.9 °F 30.40 in Calm   3.0 mph 56% 0.00 in meteobridge W/m2
03:49 24.4 °F 10.6 °F 30.40 in Calm     55% 0.00 in meteobridge W/m2
03:54 24.3 °F 11.3 °F 30.40 in Calm   4.0 mph 57% 0.00 in meteobridge W/m2
03:59 24.3 °F 10.8 °F 30.40 in Calm   2.0 mph 56% 0.00 in meteobridge W/m2
04:04 24.3 °F 11.3 °F 30.39 in Calm   2.0 mph 57% 0.00 in meteobridge W/m2
04:09 24.3 °F 11.3 °F 30.40 in Calm   3.0 mph 57% 0.00 in meteobridge W/m2
04:14 24.1 °F 11.1 °F 30.39 in Calm     57% 0.00 in meteobridge W/m2
04:19 24.1 °F 11.8 °F 30.39 in Calm     59% 0.00 in meteobridge W/m2
04:24 24.1 °F 11.8 °F 30.40 in Calm   1.0 mph 59% 0.00 in meteobridge W/m2
04:29 24.1 °F 11.1 °F 30.40 in Calm   5.0 mph 57% 0.00 in meteobridge W/m2
04:34 24.1 °F 11.5 °F 30.40 in WNW 2.0 mph 2.0 mph 58% 0.00 in meteobridge W/m2
04:39 23.9 °F 11.7 °F 30.40 in NNW 4.9 mph 5.0 mph 59% 0.00 in meteobridge W/m2
04:44 23.9 °F 11.7 °F 30.39 in NW 2.0 mph 6.0 mph 59% 0.00 in meteobridge W/m2
04:49 23.7 °F 11.5 °F 30.40 in Calm   1.0 mph 59% 0.00 in meteobridge W/m2
04:54 23.7 °F 11.5 °F 30.40 in Calm   3.0 mph 59% 0.00 in meteobridge W/m2
04:59 23.7 °F 11.5 °F 30.40 in NNW 2.0 mph 8.0 mph 59% 0.00 in meteobridge W/m2
05:04 23.5 °F 11.3 °F 30.40 in NW 2.9 mph 4.0 mph 59% 0.00 in meteobridge W/m2
05:09 23.5 °F 11.7 °F 30.40 in North 2.9 mph 3.0 mph 60% 0.00 in meteobridge W/m2
05:14 23.5 °F 11.7 °F 30.40 in Calm   1.0 mph 60% 0.00 in meteobridge W/m2
05:19 23.5 °F 11.3 °F 30.40 in Calm   2.0 mph 59% 0.00 in meteobridge W/m2
05:24 23.5 °F 11.7 °F 30.40 in Calm   5.0 mph 60% 0.00 in meteobridge W/m2
05:29 23.4 °F 11.5 °F 30.40 in Calm   4.0 mph 60% 0.00 in meteobridge W/m2
05:34 23.4 °F 11.5 °F 30.41 in Calm   1.0 mph 60% 0.00 in meteobridge W/m2
05:39 23.2 °F 11.7 °F 30.41 in Calm     61% 0.00 in meteobridge W/m2
05:44 23.2 °F 11.7 °F 30.41 in NNW 0.9 mph 8.0 mph 61% 0.00 in meteobridge W/m2
05:49 23.0 °F 11.5 °F 30.41 in Calm   4.0 mph 61% 0.00 in meteobridge W/m2
05:54 23.0 °F 11.5 °F 30.42 in Calm     61% 0.00 in meteobridge W/m2
05:59 22.8 °F 11.3 °F 30.42 in Calm   6.0 mph 61% 0.00 in meteobridge W/m2
06:04 22.8 °F 11.8 °F 30.42 in NNE 0.9 mph 7.0 mph 62% 0.00 in meteobridge W/m2
06:08 22.8 °F 11.8 °F 30.42 in Calm   2.0 mph 62% 0.00 in meteobridge W/m2
06:14 22.6 °F 12.0 °F 30.42 in Calm   4.0 mph 63% 0.00 in meteobridge W/m2
06:19 22.6 °F 12.0 °F 30.42 in NNE 0.9 mph 4.0 mph 63% 0.00 in meteobridge W/m2
06:24 22.6 °F 12.0 °F 30.42 in Calm   4.0 mph 63% 0.00 in meteobridge W/m2
06:29 22.5 °F 11.8 °F 30.43 in Calm     63% 0.00 in meteobridge W/m2
06:34 22.5 °F 11.8 °F 30.43 in Calm   1.0 mph 63% 0.00 in meteobridge W/m2
06:39 22.5 °F 12.2 °F 30.43 in Calm   4.0 mph 64% 0.00 in meteobridge W/m2
06:44 22.5 °F 12.2 °F 30.43 in NW 2.0 mph 4.0 mph 64% 0.00 in meteobridge W/m2
06:49 22.5 °F 12.2 °F 30.43 in Calm   3.0 mph 64% 0.00 in meteobridge W/m2
06:54 22.3 °F 12.0 °F 30.43 in Calm   5.0 mph 64% 0.00 in meteobridge W/m2
06:59 22.3 °F 12.0 °F 30.43 in Calm     64% 0.00 in meteobridge W/m2
07:04 22.3 °F 12.4 °F 30.43 in Calm   5.0 mph 65% 0.00 in meteobridge W/m2
07:09 22.1 °F 12.2 °F 30.44 in Calm   2.0 mph 65% 0.00 in meteobridge W/m2
07:14 22.1 °F 12.2 °F 30.44 in Calm   5.0 mph 65% 0.00 in meteobridge W/m2
07:19 22.1 °F 12.2 °F 30.44 in Calm     65% 0.00 in meteobridge W/m2
07:24 21.9 °F 12.0 °F 30.44 in Calm   4.0 mph 65% 0.00 in meteobridge W/m2
07:29 21.9 °F 12.4 °F 30.44 in North 2.9 mph 6.0 mph 66% 0.00 in meteobridge W/m2
07:34 21.9 °F 12.0 °F 30.44 in NNE 2.0 mph 3.0 mph 65% 0.00 in meteobridge W/m2
07:39 22.1 °F 11.8 °F 30.44 in Calm   3.0 mph 64% 0.00 in meteobridge W/m2
07:44 22.1 °F 11.8 °F 30.45 in Calm   5.0 mph 64% 0.00 in meteobridge W/m2
07:49 22.3 °F 11.7 °F 30.45 in Calm   7.0 mph 63% 0.00 in meteobridge W/m2
07:54 22.3 °F 11.7 °F 30.45 in Calm   4.0 mph 63% 0.00 in meteobridge W/m2
07:59 22.5 °F 11.5 °F 30.45 in Calm   5.0 mph 62% 0.00 in meteobridge W/m2
08:04 22.5 °F 11.1 °F 30.45 in Calm     61% 0.00 in meteobridge W/m2
08:09 22.6 °F 11.3 °F 30.45 in Calm   2.0 mph 61% 0.00 in meteobridge W/m2
08:14 22.6 °F 10.4 °F 30.45 in NNW 2.0 mph 8.0 mph 59% 0.00 in meteobridge W/m2
08:19 22.8 °F 10.6 °F 30.45 in Calm   3.0 mph 59% 0.00 in meteobridge W/m2
08:24 22.8 °F 10.6 °F 30.45 in Calm   3.0 mph 59% 0.00 in meteobridge W/m2
08:29 23.2 °F 10.6 °F 30.46 in NNE 6.0 mph 6.0 mph 58% 0.00 in meteobridge W/m2
08:34 23.4 °F 11.1 °F 30.46 in Calm   3.0 mph 59% 0.00 in meteobridge W/m2
08:39 23.5 °F 11.3 °F 30.46 in Calm   1.0 mph 59% 0.00 in meteobridge W/m2
08:44 23.5 °F 10.9 °F 30.46 in Calm   5.0 mph 58% 0.00 in meteobridge W/m2
08:49 24.1 °F 11.5 °F 30.47 in Calm     58% 0.00 in meteobridge W/m2
08:54 24.3 °F 10.8 °F 30.47 in Calm   3.0 mph 56% 0.00 in meteobridge W/m2
08:59 24.6 °F 12.0 °F 30.47 in Calm   2.0 mph 58% 0.00 in meteobridge W/m2
09:04 24.6 °F 10.8 °F 30.47 in WSW 2.9 mph 5.0 mph 55% 0.00 in meteobridge W/m2
09:09 24.6 °F 10.8 °F 30.47 in Calm   3.0 mph 55% 0.00 in meteobridge W/m2
09:14 25.0 °F 10.8 °F 30.47 in WSW 0.9 mph 7.0 mph 54% 0.00 in meteobridge W/m2
09:19 25.2 °F 10.9 °F 30.48 in Calm   2.0 mph 54% 0.00 in meteobridge W/m2
09:24 25.3 °F 10.6 °F 30.48 in NNW 2.9 mph 6.0 mph 53% 0.00 in meteobridge W/m2
09:29 25.5 °F 10.8 °F 30.48 in Calm   2.0 mph 53% 0.00 in meteobridge W/m2
09:34 25.7 °F 10.6 °F 30.48 in WNW 4.9 mph 6.0 mph 52% 0.00 in meteobridge W/m2
09:39 25.9 °F 10.8 °F 30.48 in Calm   4.0 mph 52% 0.00 in meteobridge W/m2
09:44 26.2 °F 10.6 °F 30.48 in NNW 2.9 mph 3.0 mph 51% 0.00 in meteobridge W/m2
09:49 26.8 °F 10.6 °F 30.48 in Calm   8.0 mph 50% 0.00 in meteobridge W/m2
09:54 27.1 °F 10.9 °F 30.48 in Calm   2.0 mph 50% 0.00 in meteobridge W/m2
09:59 27.9 °F 11.1 °F 30.48 in Calm   1.0 mph 49% 0.00 in meteobridge W/m2
10:04 28.6 °F 10.9 °F 30.48 in NE 2.9 mph 3.0 mph 47% 0.00 in meteobridge W/m2
10:09 28.9 °F 11.7 °F 30.48 in Calm   2.0 mph 48% 0.00 in meteobridge W/m2
10:14 29.1 °F 10.4 °F 30.48 in Calm     45% 0.00 in meteobridge W/m2
10:19 29.7 °F 10.9 °F 30.48 in Calm   3.0 mph 45% 0.00 in meteobridge W/m2
10:24 30.0 °F 12.2 °F 30.48 in Calm     47% 0.00 in meteobridge W/m2
10:29 30.0 °F 10.2 °F 30.48 in Calm     43% 0.00 in meteobridge W/m2
10:34 30.4 °F 10.6 °F 30.48 in Calm   1.0 mph 43% 0.00 in meteobridge W/m2
10:39 30.7 °F 10.4 °F 30.48 in Calm   3.0 mph 42% 0.00 in meteobridge W/m2
10:44 31.1 °F 10.2 °F 30.48 in Calm     41% 0.00 in meteobridge W/m2
10:49 31.5 °F 10.4 °F 30.48 in Calm     41% 0.00 in meteobridge W/m2
10:54 31.8 °F 10.2 °F 30.48 in Calm     40% 0.00 in meteobridge W/m2
10:59 32.2 °F 11.1 °F 30.48 in Calm   1.0 mph 41% 0.00 in meteobridge W/m2
11:04 32.5 °F 10.4 °F 30.48 in NE 0.9 mph 1.0 mph 39% 0.00 in meteobridge W/m2
11:09 32.7 °F 10.4 °F 30.48 in Calm     39% 0.00 in meteobridge W/m2
11:14 33.1 °F 11.3 °F 30.47 in Calm     40% 0.00 in meteobridge W/m2
11:19 33.4 °F 10.0 °F 30.48 in Calm   3.0 mph 37% 0.00 in meteobridge W/m2
11:24 33.3 °F 10.4 °F 30.48 in Calm   1.0 mph 38% 0.00 in meteobridge W/m2
11:29 33.3 °F 9.9 °F 30.48 in NNW 2.0 mph 3.0 mph 37% 0.00 in meteobridge W/m2
11:34 33.1 °F 9.0 °F 30.48 in Calm   1.0 mph 36% 0.00 in meteobridge W/m2
11:39 33.3 °F 9.9 °F 30.48 in West 2.9 mph 5.0 mph 37% 0.00 in meteobridge W/m2
11:44 33.6 °F 10.8 °F 30.48 in NW 2.9 mph 4.0 mph 38% 0.00 in meteobridge W/m2
11:49 34.0 °F 9.9 °F 30.48 in Calm   4.0 mph 36% 0.00 in meteobridge W/m2
11:54 34.0 °F 9.1 °F 30.48 in NW 2.9 mph 4.0 mph 35% 0.00 in meteobridge W/m2
11:59 34.3 °F 9.5 °F 30.48 in Calm   6.0 mph 35% 0.00 in meteobridge W/m2
12:04 35.1 °F 9.5 °F 30.48 in Calm   5.0 mph 34% 0.00 in meteobridge W/m2
12:09 35.2 °F 10.4 °F 30.48 in WNW 2.0 mph 4.0 mph 35% 0.00 in meteobridge W/m2
12:14 35.4 °F 10.4 °F 30.47 in Calm   5.0 mph 35% 0.00 in meteobridge W/m2
12:19 35.8 °F 10.8 °F 30.47 in Calm     35% 0.00 in meteobridge W/m2
12:24 35.8 °F 9.5 °F 30.47 in Calm   1.0 mph 33% 0.00 in meteobridge W/m2
12:29 36.1 °F 9.9 °F 30.47 in Calm   3.0 mph 33% 0.00 in meteobridge W/m2
12:34 36.7 °F 11.7 °F 30.47 in North 2.0 mph 4.0 mph 35% 0.00 in meteobridge W/m2
12:39 37.0 °F 11.8 °F 30.47 in Calm   2.0 mph 35% 0.00 in meteobridge W/m2
12:44 37.2 °F 12.0 °F 30.47 in Calm   2.0 mph 35% 0.00 in meteobridge W/m2
12:49 37.2 °F 12.0 °F 30.47 in Calm   4.0 mph 35% 0.00 in meteobridge W/m2
12:54 37.2 °F 12.0 °F 30.46 in WNW 2.0 mph 4.0 mph 35% 0.00 in meteobridge W/m2
12:59 37.0 °F 11.3 °F 30.47 in East 2.0 mph 2.0 mph 34% 0.00 in meteobridge W/m2
13:04 37.2 °F 10.0 °F 30.46 in Calm   3.0 mph 32% 0.00 in meteobridge W/m2
13:09 37.8 °F 11.3 °F 30.46 in Calm   2.0 mph 33% 0.00 in meteobridge W/m2
13:14 37.8 °F 9.1 °F 30.46 in Calm   4.0 mph 30% 0.00 in meteobridge W/m2
13:19 37.8 °F 9.9 °F 30.46 in Calm     31% 0.00 in meteobridge W/m2
13:24 37.9 °F 10.0 °F 30.45 in Calm   5.0 mph 31% 0.00 in meteobridge W/m2
13:29 37.9 °F 10.0 °F 30.45 in Calm   7.0 mph 31% 0.00 in meteobridge W/m2
13:34 37.9 °F 11.3 °F 30.45 in Calm   2.0 mph 33% 0.00 in meteobridge W/m2
13:39 38.1 °F 10.9 °F 30.45 in Calm   2.0 mph 32% 0.00 in meteobridge W/m2
13:44 38.1 °F 10.9 °F 30.45 in WNW 2.0 mph 5.0 mph 32% 0.00 in meteobridge W/m2
13:49 38.5 °F 10.4 °F 30.44 in Calm   6.0 mph 31% 0.00 in meteobridge W/m2
13:54 38.3 °F 10.9 °F 30.44 in Calm   1.0 mph 32% 0.00 in meteobridge W/m2
13:59 38.7 °F 11.3 °F 30.44 in Calm   2.0 mph 32% 0.00 in meteobridge W/m2
14:04 38.7 °F 9.9 °F 30.44 in NNW 0.9 mph 2.0 mph 30% 0.00 in meteobridge W/m2
14:09 39.0 °F 10.9 °F 30.44 in Calm   3.0 mph 31% 0.00 in meteobridge W/m2
14:14 38.8 °F 10.8 °F 30.44 in Calm     31% 0.00 in meteobridge W/m2
14:19 38.7 °F 9.1 °F 30.43 in West 0.9 mph 1.0 mph 29% 0.00 in meteobridge W/m2
14:24 38.5 °F 9.0 °F 30.43 in Calm     29% 0.00 in meteobridge W/m2
14:29 38.3 °F 9.5 °F 30.43 in Calm   1.0 mph 30% 0.00 in meteobridge W/m2
14:34 38.7 °F 10.6 °F 30.43 in Calm   4.0 mph 31% 0.00 in meteobridge W/m2
14:39 38.8 °F 11.5 °F 30.43 in Calm   4.0 mph 32% 0.00 in meteobridge W/m2
14:44 38.7 °F 10.6 °F 30.43 in Calm   7.0 mph 31% 0.00 in meteobridge W/m2
14:49 38.5 °F 9.7 °F 30.42 in Calm   2.0 mph 30% 0.00 in meteobridge W/m2
14:54 38.7 °F 11.3 °F 30.42 in West 2.0 mph 2.0 mph 32% 0.00 in meteobridge W/m2
14:59 38.8 °F 10.8 °F 30.42 in Calm   3.0 mph 31% 0.00 in meteobridge W/m2
15:04 38.8 °F 10.8 °F 30.42 in Calm   2.0 mph 31% 0.00 in meteobridge W/m2
15:09 38.7 °F 9.9 °F 30.42 in Calm   3.0 mph 30% 0.00 in meteobridge W/m2
15:14 38.7 °F 11.3 °F 30.42 in Calm   2.0 mph 32% 0.00 in meteobridge W/m2
15:19 38.7 °F 12.0 °F 30.42 in Calm   1.0 mph 33% 0.00 in meteobridge W/m2
15:24 38.8 °F 10.0 °F 30.42 in NW 0.9 mph 4.0 mph 30% 0.00 in meteobridge W/m2
15:29 38.8 °F 10.0 °F 30.42 in Calm   6.0 mph 30% 0.00 in meteobridge W/m2
15:34 38.8 °F 10.8 °F 30.43 in NW 0.9 mph 4.0 mph 31% 0.00 in meteobridge W/m2
15:39 38.8 °F 10.8 °F 30.42 in Calm   3.0 mph 31% 0.00 in meteobridge W/m2
15:44 39.0 °F 10.9 °F 30.42 in NNW 0.9 mph 2.0 mph 31% 0.00 in meteobridge W/m2
15:49 39.2 °F 10.4 °F 30.42 in NNW 2.0 mph 5.0 mph 30% 0.00 in meteobridge W/m2
15:54 39.2 °F 11.1 °F 30.42 in Calm   1.0 mph 31% 0.00 in meteobridge W/m2
15:59 39.4 °F 10.6 °F 30.42 in Calm   2.0 mph 30% 0.00 in meteobridge W/m2
16:04 39.4 °F 10.6 °F 30.42 in Calm   5.0 mph 30% 0.00 in meteobridge W/m2
16:09 39.4 °F 9.7 °F 30.42 in Calm   9.0 mph 29% 0.00 in meteobridge W/m2
16:14 39.6 °F 10.8 °F 30.42 in Calm   1.0 mph 30% 0.00 in meteobridge W/m2
16:19 39.6 °F 11.5 °F 30.42 in Calm   3.0 mph 31% 0.00 in meteobridge W/m2
16:24 39.6 °F 10.8 °F 30.42 in Calm   4.0 mph 30% 0.00 in meteobridge W/m2
16:29 39.4 °F 11.3 °F 30.42 in Calm   4.0 mph 31% 0.00 in meteobridge W/m2
16:34 39.4 °F 11.3 °F 30.43 in NW 4.9 mph 5.0 mph 31% 0.00 in meteobridge W/m2
16:39 39.0 °F 10.2 °F 30.42 in Calm   4.0 mph 30% 0.00 in meteobridge W/m2
16:44 39.0 °F 10.9 °F 30.42 in NNW 2.0 mph 5.0 mph 31% 0.00 in meteobridge W/m2
16:49 38.8 °F 10.0 °F 30.43 in Calm   3.0 mph 30% 0.00 in meteobridge W/m2
16:54 38.7 °F 10.6 °F 30.43 in Calm     31% 0.00 in meteobridge W/m2
16:59 38.7 °F 12.7 °F 30.43 in Calm   1.0 mph 34% 0.00 in meteobridge W/m2
17:04 38.5 °F 10.4 °F 30.43 in Calm   5.0 mph 31% 0.00 in meteobridge W/m2
17:09 38.3 °F 10.2 °F 30.43 in East 2.0 mph 3.0 mph 31% 0.00 in meteobridge W/m2
17:14 38.1 °F 10.9 °F 30.43 in Calm   2.0 mph 32% 0.00 in meteobridge W/m2
17:19 37.9 °F 11.3 °F 30.43 in Calm   2.0 mph 33% 0.00 in meteobridge W/m2
17:24 37.9 °F 10.8 °F 30.43 in Calm   5.0 mph 32% 0.00 in meteobridge W/m2
17:29 37.8 °F 11.8 °F 30.43 in Calm     34% 0.00 in meteobridge W/m2
17:34 37.6 °F 11.7 °F 30.44 in Calm   1.0 mph 34% 0.00 in meteobridge W/m2
17:39 37.4 °F 12.2 °F 30.44 in Calm     35% 0.00 in meteobridge W/m2
17:44 37.0 °F 9.9 °F 30.44 in Calm   4.0 mph 32% 0.00 in meteobridge W/m2
17:49 37.0 °F 11.8 °F 30.43 in Calm     35% 0.00 in meteobridge W/m2
17:54 36.7 °F 13.5 °F 30.43 in NNW 2.0 mph 2.0 mph 38% 0.00 in meteobridge W/m2
17:59 36.7 °F 11.7 °F 30.43 in Calm     35% 0.00 in meteobridge W/m2
18:04 36.3 °F 11.3 °F 30.43 in Calm   3.0 mph 35% 0.00 in meteobridge W/m2
18:09 36.1 °F 12.4 °F 30.43 in Calm     37% 0.00 in meteobridge W/m2
18:14 36.0 °F 14.5 °F 30.43 in Calm     41% 0.00 in meteobridge W/m2
18:19 35.8 °F 14.9 °F 30.43 in Calm     42% 0.00 in meteobridge W/m2
18:24 35.2 °F 13.3 °F 30.43 in Calm   2.0 mph 40% 0.00 in meteobridge W/m2
18:29 35.1 °F 13.1 °F 30.43 in Calm     40% 0.00 in meteobridge W/m2
18:34 34.7 °F 14.0 °F 30.43 in Calm     42% 0.00 in meteobridge W/m2
18:39 34.3 °F 12.6 °F 30.44 in Calm     40% 0.00 in meteobridge W/m2
18:44 34.2 °F 14.5 °F 30.43 in Calm     44% 0.00 in meteobridge W/m2
18:49 34.0 °F 11.7 °F 30.43 in Calm     39% 0.00 in meteobridge W/m2
18:54 33.6 °F 11.3 °F 30.43 in Calm     39% 0.00 in meteobridge W/m2
18:59 33.3 °F 12.0 °F 30.43 in Calm     41% 0.00 in meteobridge W/m2
19:04 33.1 °F 11.3 °F 30.43 in Calm     40% 0.00 in meteobridge W/m2
19:09 32.7 °F 11.7 °F 30.44 in Calm     41% 0.00 in meteobridge W/m2
19:14 32.5 °F 12.0 °F 30.44 in Calm     42% 0.00 in meteobridge W/m2
19:19 32.2 °F 12.7 °F 30.43 in Calm     44% 0.00 in meteobridge W/m2
19:24 31.6 °F 13.3 °F 30.43 in Calm     46% 0.00 in meteobridge W/m2
19:29 31.3 °F 13.5 °F 30.43 in Calm     47% 0.00 in meteobridge W/m2
19:34 30.9 °F 13.1 °F 30.43 in Calm     47% 0.00 in meteobridge W/m2
19:39 30.6 °F 12.7 °F 30.43 in Calm     47% 0.00 in meteobridge W/m2
19:44 30.2 °F 13.8 °F 30.44 in Calm     50% 0.00 in meteobridge W/m2
19:49 29.8 °F 12.9 °F 30.43 in Calm     49% 0.00 in meteobridge W/m2
19:54 29.7 °F 12.9 °F 30.43 in Calm     49% 0.00 in meteobridge W/m2
19:59 29.5 °F 13.6 °F 30.43 in Calm     51% 0.00 in meteobridge W/m2
20:04 29.3 °F 14.4 °F 30.44 in Calm     53% 0.00 in meteobridge W/m2
20:09 29.1 °F 13.6 °F 30.44 in Calm     52% 0.00 in meteobridge W/m2
20:14 28.9 °F 13.5 °F 30.43 in Calm     52% 0.00 in meteobridge W/m2
20:19 28.8 °F 13.3 °F 30.43 in Calm     52% 0.00 in meteobridge W/m2
20:24 28.6 °F 13.6 °F 30.43 in Calm     53% 0.00 in meteobridge W/m2
20:29 28.4 °F 14.4 °F 30.43 in Calm     55% 0.00 in meteobridge W/m2
20:34 28.2 °F 14.5 °F 30.43 in Calm     56% 0.00 in meteobridge W/m2
20:39 28.0 °F 14.7 °F 30.44 in Calm     57% 0.00 in meteobridge W/m2
20:44 28.0 °F 15.3 °F 30.44 in Calm     58% 0.00 in meteobridge W/m2
20:49 27.9 °F 15.1 °F 30.44 in Calm     58% 0.00 in meteobridge W/m2
20:54 27.9 °F 15.1 °F 30.44 in Calm     58% 0.00 in meteobridge W/m2
20:59 27.9 °F 15.4 °F 30.44 in Calm     59% 0.00 in meteobridge W/m2
21:04 27.7 °F 15.6 °F 30.44 in Calm     60% 0.00 in meteobridge W/m2
21:09 27.7 °F 16.0 °F 30.44 in Calm     61% 0.00 in meteobridge W/m2
21:14 27.7 °F 16.0 °F 30.43 in Calm     61% 0.00 in meteobridge W/m2
21:19 27.5 °F 16.2 °F 30.43 in Calm     62% 0.00 in meteobridge W/m2
21:24 27.3 °F 15.6 °F 30.43 in Calm     61% 0.00 in meteobridge W/m2
21:29 27.3 °F 16.0 °F 30.43 in Calm     62% 0.00 in meteobridge W/m2
21:34 27.1 °F 15.8 °F 30.43 in Calm     62% 0.00 in meteobridge W/m2
21:39 27.1 °F 15.8 °F 30.43 in Calm     62% 0.00 in meteobridge W/m2
21:44 27.1 °F 15.8 °F 30.43 in Calm     62% 0.00 in meteobridge W/m2
21:49 27.0 °F 15.6 °F 30.43 in Calm     62% 0.00 in meteobridge W/m2
21:54 27.0 °F 16.0 °F 30.44 in Calm     63% 0.00 in meteobridge W/m2
21:59 27.0 °F 16.3 °F 30.44 in Calm     64% 0.00 in meteobridge W/m2
22:04 27.0 °F 17.1 °F 30.44 in Calm     66% 0.00 in meteobridge W/m2
22:09 26.8 °F 16.5 °F 30.43 in Calm     65% 0.00 in meteobridge W/m2
22:14 26.8 °F 16.5 °F 30.44 in Calm     65% 0.00 in meteobridge W/m2
22:19 26.8 °F 16.5 °F 30.44 in Calm     65% 0.00 in meteobridge W/m2
22:24 26.6 °F 16.7 °F 30.44 in Calm     66% 0.00 in meteobridge W/m2
22:29 26.4 °F 16.9 °F 30.43 in Calm     67% 0.00 in meteobridge W/m2
22:34 26.4 °F 17.2 °F 30.43 in Calm     68% 0.00 in meteobridge W/m2
22:39 26.4 °F 17.2 °F 30.43 in Calm     68% 0.00 in meteobridge W/m2
22:44 26.2 °F 17.1 °F 30.43 in Calm     68% 0.00 in meteobridge W/m2
22:49 26.1 °F 16.9 °F 30.42 in Calm     68% 0.00 in meteobridge W/m2
22:54 26.1 °F 17.2 °F 30.43 in Calm     69% 0.00 in meteobridge W/m2
22:59 25.9 °F 17.1 °F 30.43 in Calm     69% 0.00 in meteobridge W/m2
23:04 25.9 °F 17.4 °F 30.42 in Calm     70% 0.00 in meteobridge W/m2
23:09 25.9 °F 17.4 °F 30.42 in Calm     70% 0.00 in meteobridge W/m2
23:14 25.9 °F 17.4 °F 30.43 in Calm     70% 0.00 in meteobridge W/m2
23:19 25.7 °F 17.6 °F 30.43 in Calm     71% 0.00 in meteobridge W/m2
23:24 25.5 °F 17.4 °F 30.42 in Calm     71% 0.00 in meteobridge W/m2
23:29 25.5 °F 17.8 °F 30.42 in Calm     72% 0.00 in meteobridge W/m2
23:34 25.5 °F 18.1 °F 30.42 in Calm     73% 0.00 in meteobridge W/m2
23:39 25.3 °F 18.1 °F 30.42 in Calm     74% 0.00 in meteobridge W/m2
23:44 25.3 °F 18.1 °F 30.42 in Calm     74% 0.00 in meteobridge W/m2
23:49 25.2 °F 17.4 °F 30.41 in Calm     72% 0.00 in meteobridge W/m2
23:54 25.2 °F 17.8 °F 30.41 in Calm     73% 0.00 in meteobridge W/m2
23:59 25.2 °F 18.0 °F 30.42 in Calm     74% 0.00 in meteobridge W/m2
EllijayWeather
Compliments of Weather Underground - 2.5 mb